Terminal Aerodrome Forecast
Issued by NWS

Home | Current Version | Previous Version | Text Only | Print | Product List | Glossary On
Versions: 1 2 3 4 5 6 7 8 9 10 11 12 13 14 15 16 17
000
FTUS46 KPDT 050528
TAFBDN
TAF
KBDN 050528Z 0506/0606 27006KT P6SM VCSH FEW040 BKN060
     FM050900 21005KT P6SM VCSH SCT030 BKN040
     FM051500 VRB05KT P6SM SCT030
     FM051900 33011G18KT P6SM SCT040 SCT120
     FM060300 32007KT P6SM FEW050 SCT150=

USA.gov is the U.S. government's official web portal to all federal, state and local government web resources and services.